sensor_id;sensor_type;location;lat;lon;timestamp;P1;durP1;ratioP1;P2;durP2;ratioP2
47335;SDS011;33068;51.990;5.926;2024-02-14T00:01:26;10.65;;;8.52;;
47335;SDS011;33068;51.990;5.926;2024-02-14T00:03:55;13.13;;;8.02;;
47335;SDS011;33068;51.990;5.926;2024-02-14T00:06:22;14.25;;;7.88;;
47335;SDS011;33068;51.990;5.926;2024-02-14T00:08:50;11.40;;;7.57;;
47335;SDS011;33068;51.990;5.926;2024-02-14T00:11:17;11.05;;;7.72;;
47335;SDS011;33068;51.990;5.926;2024-02-14T00:13:45;11.20;;;7.55;;
47335;SDS011;33068;51.990;5.926;2024-02-14T00:16:12;11.35;;;7.22;;
47335;SDS011;33068;51.990;5.926;2024-02-14T00:18:39;9.27;;;6.95;;
47335;SDS011;33068;51.990;5.926;2024-02-14T00:21:07;10.65;;;7.57;;
47335;SDS011;33068;51.990;5.926;2024-02-14T00:23:34;8.50;;;7.55;;
47335;SDS011;33068;51.990;5.926;2024-02-14T00:26:01;8.55;;;7.20;;
47335;SDS011;33068;51.990;5.926;2024-02-14T00:28:29;11.45;;;8.40;;
47335;SDS011;33068;51.990;5.926;2024-02-14T00:30:56;8.85;;;7.18;;
47335;SDS011;33068;51.990;5.926;2024-02-14T00:33:23;10.50;;;8.13;;
47335;SDS011;33068;51.990;5.926;2024-02-14T00:35:50;12.30;;;8.65;;
47335;SDS011;33068;51.990;5.926;2024-02-14T00:38:18;11.63;;;9.32;;
47335;SDS011;33068;51.990;5.926;2024-02-14T00:40:45;11.23;;;9.60;;
47335;SDS011;33068;51.990;5.926;2024-02-14T00:43:12;10.43;;;9.20;;
47335;SDS011;33068;51.990;5.926;2024-02-14T00:45:39;12.82;;;8.85;;
47335;SDS011;33068;51.990;5.926;2024-02-14T00:48:07;10.63;;;9.57;;
47335;SDS011;33068;51.990;5.926;2024-02-14T00:50:34;12.18;;;10.13;;
47335;SDS011;33068;51.990;5.926;2024-02-14T00:53:03;11.55;;;10.18;;
47335;SDS011;33068;51.990;5.926;2024-02-14T00:55:30;11.93;;;10.60;;
47335;SDS011;33068;51.990;5.926;2024-02-14T00:57:57;17.77;;;11.18;;
47335;SDS011;33068;51.990;5.926;2024-02-14T01:00:24;12.70;;;10.70;;
47335;SDS011;33068;51.990;5.926;2024-02-14T01:02:52;14.15;;;10.15;;
47335;SDS011;33068;51.990;5.926;2024-02-14T01:05:19;12.15;;;10.40;;
47335;SDS011;33068;51.990;5.926;2024-02-14T01:07:46;13.25;;;10.40;;
47335;SDS011;33068;51.990;5.926;2024-02-14T01:10:13;15.02;;;11.88;;
47335;SDS011;33068;51.990;5.926;2024-02-14T01:12:41;17.67;;;13.18;;
47335;SDS011;33068;51.990;5.926;2024-02-14T01:15:09;13.65;;;11.10;;
47335;SDS011;33068;51.990;5.926;2024-02-14T01:17:36;17.45;;;11.68;;
47335;SDS011;33068;51.990;5.926;2024-02-14T01:20:04;11.50;;;10.35;;
47335;SDS011;33068;51.990;5.926;2024-02-14T01:22:34;14.88;;;11.38;;
47335;SDS011;33068;51.990;5.926;2024-02-14T01:25:01;14.25;;;12.15;;
47335;SDS011;33068;51.990;5.926;2024-02-14T01:27:30;15.68;;;10.23;;
47335;SDS011;33068;51.990;5.926;2024-02-14T01:29:58;15.45;;;11.07;;
47335;SDS011;33068;51.990;5.926;2024-02-14T01:32:25;13.88;;;11.43;;
47335;SDS011;33068;51.990;5.926;2024-02-14T01:34:55;13.73;;;11.02;;
47335;SDS011;33068;51.990;5.926;2024-02-14T01:37:22;13.95;;;11.00;;
47335;SDS011;33068;51.990;5.926;2024-02-14T01:39:49;13.55;;;10.93;;
47335;SDS011;33068;51.990;5.926;2024-02-14T01:42:16;14.63;;;11.10;;
47335;SDS011;33068;51.990;5.926;2024-02-14T01:44:43;14.00;;;10.73;;
47335;SDS011;33068;51.990;5.926;2024-02-14T01:47:12;17.45;;;12.07;;
47335;SDS011;33068;51.990;5.926;2024-02-14T01:49:40;14.15;;;10.77;;
47335;SDS011;33068;51.990;5.926;2024-02-14T01:52:09;13.73;;;11.00;;
47335;SDS011;33068;51.990;5.926;2024-02-14T01:54:36;16.70;;;10.95;;
47335;SDS011;33068;51.990;5.926;2024-02-14T01:57:04;16.65;;;11.88;;
47335;SDS011;33068;51.990;5.926;2024-02-14T01:59:32;14.98;;;10.40;;
47335;SDS011;33068;51.990;5.926;2024-02-14T02:02:01;18.63;;;10.43;;
47335;SDS011;33068;51.990;5.926;2024-02-14T02:04:29;15.60;;;10.40;;
47335;SDS011;33068;51.990;5.926;2024-02-14T02:06:56;17.10;;;11.40;;
47335;SDS011;33068;51.990;5.926;2024-02-14T02:09:24;17.65;;;12.07;;
47335;SDS011;33068;51.990;5.926;2024-02-14T02:11:51;15.77;;;10.82;;
47335;SDS011;33068;51.990;5.926;2024-02-14T02:14:21;12.13;;;9.38;;
47335;SDS011;33068;51.990;5.926;2024-02-14T02:16:48;20.08;;;10.10;;
47335;SDS011;33068;51.990;5.926;2024-02-14T02:19:15;15.30;;;10.60;;
47335;SDS011;33068;51.990;5.926;2024-02-14T02:21:43;14.80;;;9.63;;
47335;SDS011;33068;51.990;5.926;2024-02-14T02:24:12;16.70;;;11.35;;
47335;SDS011;33068;51.990;5.926;2024-02-14T02:26:39;18.27;;;11.15;;
47335;SDS011;33068;51.990;5.926;2024-02-14T02:29:06;18.85;;;11.43;;
47335;SDS011;33068;51.990;5.926;2024-02-14T02:31:34;19.08;;;11.70;;
47335;SDS011;33068;51.990;5.926;2024-02-14T02:34:03;16.80;;;12.10;;
47335;SDS011;33068;51.990;5.926;2024-02-14T02:36:30;17.02;;;13.18;;
47335;SDS011;33068;51.990;5.926;2024-02-14T02:38:57;21.73;;;13.55;;
47335;SDS011;33068;51.990;5.926;2024-02-14T02:41:27;19.75;;;13.02;;
47335;SDS011;33068;51.990;5.926;2024-02-14T02:43:54;19.08;;;12.40;;
47335;SDS011;33068;51.990;5.926;2024-02-14T02:46:21;26.25;;;13.77;;
47335;SDS011;33068;51.990;5.926;2024-02-14T02:48:48;20.05;;;13.90;;
47335;SDS011;33068;51.990;5.926;2024-02-14T02:51:17;26.48;;;14.30;;
47335;SDS011;33068;51.990;5.926;2024-02-14T02:53:44;17.17;;;12.30;;
47335;SDS011;33068;51.990;5.926;2024-02-14T02:56:11;21.17;;;14.35;;
47335;SDS011;33068;51.990;5.926;2024-02-14T02:58:41;18.63;;;12.73;;
47335;SDS011;33068;51.990;5.926;2024-02-14T03:01:09;18.58;;;14.30;;
47335;SDS011;33068;51.990;5.926;2024-02-14T03:03:37;17.95;;;12.80;;
47335;SDS011;33068;51.990;5.926;2024-02-14T03:06:04;23.02;;;15.63;;
47335;SDS011;33068;51.990;5.926;2024-02-14T03:08:31;23.60;;;14.57;;
47335;SDS011;33068;51.990;5.926;2024-02-14T03:11:02;19.67;;;14.38;;
47335;SDS011;33068;51.990;5.926;2024-02-14T03:13:30;21.15;;;15.10;;
47335;SDS011;33068;51.990;5.926;2024-02-14T03:15:59;20.60;;;15.45;;
47335;SDS011;33068;51.990;5.926;2024-02-14T03:18:26;20.17;;;14.43;;
47335;SDS011;33068;51.990;5.926;2024-02-14T03:20:53;19.98;;;14.50;;
47335;SDS011;33068;51.990;5.926;2024-02-14T03:23:21;18.67;;;14.40;;
47335;SDS011;33068;51.990;5.926;2024-02-14T03:25:48;18.45;;;13.85;;
47335;SDS011;33068;51.990;5.926;2024-02-14T03:28:17;22.08;;;15.30;;
47335;SDS011;33068;51.990;5.926;2024-02-14T03:30:45;17.83;;;14.75;;
47335;SDS011;33068;51.990;5.926;2024-02-14T03:33:14;21.42;;;16.05;;
47335;SDS011;33068;51.990;5.926;2024-02-14T03:35:41;25.95;;;15.85;;
47335;SDS011;33068;51.990;5.926;2024-02-14T03:38:08;22.85;;;15.82;;
47335;SDS011;33068;51.990;5.926;2024-02-14T03:40:35;19.48;;;14.15;;
47335;SDS011;33068;51.990;5.926;2024-02-14T03:43:03;23.85;;;16.83;;
47335;SDS011;33068;51.990;5.926;2024-02-14T03:45:31;27.40;;;17.52;;
47335;SDS011;33068;51.990;5.926;2024-02-14T03:47:58;24.52;;;17.10;;
47335;SDS011;33068;51.990;5.926;2024-02-14T03:50:26;22.15;;;16.00;;
47335;SDS011;33068;51.990;5.926;2024-02-14T03:52:53;32.15;;;18.15;;
47335;SDS011;33068;51.990;5.926;2024-02-14T03:55:21;31.05;;;18.48;;
47335;SDS011;33068;51.990;5.926;2024-02-14T03:57:48;27.10;;;18.20;;
47335;SDS011;33068;51.990;5.926;2024-02-14T04:00:16;28.23;;;18.83;;
47335;SDS011;33068;51.990;5.926;2024-02-14T04:02:44;30.70;;;18.33;;
47335;SDS011;33068;51.990;5.926;2024-02-14T04:05:14;30.92;;;18.42;;
47335;SDS011;33068;51.990;5.926;2024-02-14T04:07:42;35.45;;;20.70;;
47335;SDS011;33068;51.990;5.926;2024-02-14T04:10:14;32.80;;;21.65;;
47335;SDS011;33068;51.990;5.926;2024-02-14T04:12:41;33.40;;;21.00;;
47335;SDS011;33068;51.990;5.926;2024-02-14T04:15:08;28.42;;;19.05;;
47335;SDS011;33068;51.990;5.926;2024-02-14T04:17:36;28.08;;;19.27;;
47335;SDS011;33068;51.990;5.926;2024-02-14T04:20:03;32.28;;;21.00;;
47335;SDS011;33068;51.990;5.926;2024-02-14T04:22:31;26.00;;;18.63;;
47335;SDS011;33068;51.990;5.926;2024-02-14T04:25:00;36.03;;;19.90;;
47335;SDS011;33068;51.990;5.926;2024-02-14T04:27:27;33.92;;;20.13;;
47335;SDS011;33068;51.990;5.926;2024-02-14T04:29:54;30.23;;;19.48;;
47335;SDS011;33068;51.990;5.926;2024-02-14T04:32:21;29.92;;;20.75;;
47335;SDS011;33068;51.990;5.926;2024-02-14T04:34:49;38.45;;;21.63;;
47335;SDS011;33068;51.990;5.926;2024-02-14T04:37:16;33.80;;;20.65;;
47335;SDS011;33068;51.990;5.926;2024-02-14T04:39:44;31.90;;;20.50;;
47335;SDS011;33068;51.990;5.926;2024-02-14T04:42:13;33.38;;;20.92;;
47335;SDS011;33068;51.990;5.926;2024-02-14T04:44:40;28.73;;;18.52;;
47335;SDS011;33068;51.990;5.926;2024-02-14T04:47:07;37.85;;;21.58;;
47335;SDS011;33068;51.990;5.926;2024-02-14T04:49:34;32.30;;;21.13;;
47335;SDS011;33068;51.990;5.926;2024-02-14T04:52:02;35.30;;;22.95;;
47335;SDS011;33068;51.990;5.926;2024-02-14T04:54:29;32.47;;;20.17;;
47335;SDS011;33068;51.990;5.926;2024-02-14T04:56:57;33.22;;;21.40;;
47335;SDS011;33068;51.990;5.926;2024-02-14T04:59:25;41.50;;;24.90;;
47335;SDS011;33068;51.990;5.926;2024-02-14T05:01:52;34.90;;;21.67;;
47335;SDS011;33068;51.990;5.926;2024-02-14T05:04:19;38.13;;;21.85;;
47335;SDS011;33068;51.990;5.926;2024-02-14T05:06:47;37.83;;;22.52;;
47335;SDS011;33068;51.990;5.926;2024-02-14T05:09:15;37.03;;;23.27;;
47335;SDS011;33068;51.990;5.926;2024-02-14T05:11:42;32.42;;;21.30;;
47335;SDS011;33068;51.990;5.926;2024-02-14T05:14:09;42.83;;;24.17;;
47335;SDS011;33068;51.990;5.926;2024-02-14T05:16:37;38.33;;;24.38;;
47335;SDS011;33068;51.990;5.926;2024-02-14T05:19:04;31.17;;;21.38;;
47335;SDS011;33068;51.990;5.926;2024-02-14T05:21:31;38.50;;;22.20;;
47335;SDS011;33068;51.990;5.926;2024-02-14T05:23:58;31.90;;;20.77;;
47335;SDS011;33068;51.990;5.926;2024-02-14T05:26:25;34.30;;;22.83;;
47335;SDS011;33068;51.990;5.926;2024-02-14T05:28:52;33.58;;;23.35;;
47335;SDS011;33068;51.990;5.926;2024-02-14T05:31:19;37.03;;;22.77;;
47335;SDS011;33068;51.990;5.926;2024-02-14T05:33:49;36.25;;;23.90;;
47335;SDS011;33068;51.990;5.926;2024-02-14T05:36:16;35.67;;;23.25;;
47335;SDS011;33068;51.990;5.926;2024-02-14T05:38:43;33.13;;;21.08;;
47335;SDS011;33068;51.990;5.926;2024-02-14T05:41:10;38.75;;;23.90;;
47335;SDS011;33068;51.990;5.926;2024-02-14T05:43:38;37.25;;;22.73;;
47335;SDS011;33068;51.990;5.926;2024-02-14T05:46:05;37.78;;;21.95;;
47335;SDS011;33068;51.990;5.926;2024-02-14T05:48:36;45.13;;;25.48;;
47335;SDS011;33068;51.990;5.926;2024-02-14T05:51:06;38.85;;;23.10;;
47335;SDS011;33068;51.990;5.926;2024-02-14T05:53:34;40.47;;;23.23;;
47335;SDS011;33068;51.990;5.926;2024-02-14T05:56:01;35.65;;;23.65;;
47335;SDS011;33068;51.990;5.926;2024-02-14T05:58:54;46.15;;;23.60;;
47335;SDS011;33068;51.990;5.926;2024-02-14T06:01:21;36.45;;;22.45;;
47335;SDS011;33068;51.990;5.926;2024-02-14T06:03:49;31.30;;;20.95;;
47335;SDS011;33068;51.990;5.926;2024-02-14T06:11:01;42.10;;;24.77;;
47335;SDS011;33068;51.990;5.926;2024-02-14T06:13:28;36.95;;;22.75;;
47335;SDS011;33068;51.990;5.926;2024-02-14T06:15:55;36.95;;;22.58;;
47335;SDS011;33068;51.990;5.926;2024-02-14T06:18:22;35.97;;;22.10;;
47335;SDS011;33068;51.990;5.926;2024-02-14T06:20:49;36.47;;;23.25;;
47335;SDS011;33068;51.990;5.926;2024-02-14T06:23:16;41.92;;;26.45;;
47335;SDS011;33068;51.990;5.926;2024-02-14T06:25:44;37.30;;;22.67;;
47335;SDS011;33068;51.990;5.926;2024-02-14T06:28:12;37.75;;;22.67;;
47335;SDS011;33068;51.990;5.926;2024-02-14T06:30:39;44.97;;;24.10;;
47335;SDS011;33068;51.990;5.926;2024-02-14T06:33:07;34.50;;;22.77;;
47335;SDS011;33068;51.990;5.926;2024-02-14T06:35:34;37.35;;;22.35;;
47335;SDS011;33068;51.990;5.926;2024-02-14T06:38:01;34.42;;;22.55;;
47335;SDS011;33068;51.990;5.926;2024-02-14T06:40:28;34.97;;;22.88;;
47335;SDS011;33068;51.990;5.926;2024-02-14T06:42:55;39.80;;;23.10;;
47335;SDS011;33068;51.990;5.926;2024-02-14T06:45:24;37.65;;;22.67;;
47335;SDS011;33068;51.990;5.926;2024-02-14T06:47:52;32.63;;;20.58;;
47335;SDS011;33068;51.990;5.926;2024-02-14T06:50:20;34.35;;;23.10;;
47335;SDS011;33068;51.990;5.926;2024-02-14T06:52:47;39.15;;;22.45;;
47335;SDS011;33068;51.990;5.926;2024-02-14T06:55:14;35.45;;;22.30;;
47335;SDS011;33068;51.990;5.926;2024-02-14T06:57:41;37.65;;;22.88;;
47335;SDS011;33068;51.990;5.926;2024-02-14T07:00:09;36.90;;;21.27;;
47335;SDS011;33068;51.990;5.926;2024-02-14T07:02:38;32.95;;;21.10;;
47335;SDS011;33068;51.990;5.926;2024-02-14T07:05:05;34.80;;;21.17;;
47335;SDS011;33068;51.990;5.926;2024-02-14T07:07:37;42.10;;;24.33;;
47335;SDS011;33068;51.990;5.926;2024-02-14T07:10:06;35.13;;;21.63;;
47335;SDS011;33068;51.990;5.926;2024-02-14T07:12:34;36.67;;;23.17;;
47335;SDS011;33068;51.990;5.926;2024-02-14T07:15:02;46.38;;;25.13;;
47335;SDS011;33068;51.990;5.926;2024-02-14T07:17:30;35.42;;;23.25;;
47335;SDS011;33068;51.990;5.926;2024-02-14T07:20:00;38.75;;;22.23;;
47335;SDS011;33068;51.990;5.926;2024-02-14T07:22:32;39.63;;;22.75;;
47335;SDS011;33068;51.990;5.926;2024-02-14T07:25:03;43.95;;;25.40;;
47335;SDS011;33068;51.990;5.926;2024-02-14T07:27:33;39.25;;;23.20;;
47335;SDS011;33068;51.990;5.926;2024-02-14T07:30:00;36.53;;;22.50;;
47335;SDS011;33068;51.990;5.926;2024-02-14T07:32:27;41.10;;;24.40;;
47335;SDS011;33068;51.990;5.926;2024-02-14T07:34:54;39.85;;;23.00;;
47335;SDS011;33068;51.990;5.926;2024-02-14T07:37:24;44.92;;;24.55;;
47335;SDS011;33068;51.990;5.926;2024-02-14T07:39:52;38.63;;;23.58;;
47335;SDS011;33068;51.990;5.926;2024-02-14T07:42:19;36.17;;;22.10;;
47335;SDS011;33068;51.990;5.926;2024-02-14T07:44:47;35.28;;;23.42;;
47335;SDS011;33068;51.990;5.926;2024-02-14T07:47:14;36.17;;;22.45;;
47335;SDS011;33068;51.990;5.926;2024-02-14T07:49:41;42.33;;;23.38;;
47335;SDS011;33068;51.990;5.926;2024-02-14T07:52:08;38.60;;;23.58;;
47335;SDS011;33068;51.990;5.926;2024-02-14T07:54:36;48.65;;;25.80;;
47335;SDS011;33068;51.990;5.926;2024-02-14T07:57:03;42.28;;;24.63;;
47335;SDS011;33068;51.990;5.926;2024-02-14T07:59:31;39.35;;;23.85;;
47335;SDS011;33068;51.990;5.926;2024-02-14T08:01:58;34.17;;;22.40;;
47335;SDS011;33068;51.990;5.926;2024-02-14T08:04:25;44.33;;;25.83;;
47335;SDS011;33068;51.990;5.926;2024-02-14T08:06:52;39.70;;;24.98;;
47335;SDS011;33068;51.990;5.926;2024-02-14T08:09:20;45.63;;;25.42;;
47335;SDS011;33068;51.990;5.926;2024-02-14T08:11:49;41.10;;;24.42;;
47335;SDS011;33068;51.990;5.926;2024-02-14T08:14:18;43.03;;;26.40;;
47335;SDS011;33068;51.990;5.926;2024-02-14T08:16:45;45.53;;;26.75;;
47335;SDS011;33068;51.990;5.926;2024-02-14T08:19:12;44.65;;;26.77;;
47335;SDS011;33068;51.990;5.926;2024-02-14T08:21:40;40.80;;;24.05;;
47335;SDS011;33068;51.990;5.926;2024-02-14T08:24:08;43.83;;;24.73;;
47335;SDS011;33068;51.990;5.926;2024-02-14T08:26:35;46.47;;;24.95;;
47335;SDS011;33068;51.990;5.926;2024-02-14T08:29:03;34.15;;;23.40;;
47335;SDS011;33068;51.990;5.926;2024-02-14T08:31:30;42.92;;;24.45;;
47335;SDS011;33068;51.990;5.926;2024-02-14T08:33:58;33.53;;;22.77;;
47335;SDS011;33068;51.990;5.926;2024-02-14T08:36:25;41.75;;;24.00;;
47335;SDS011;33068;51.990;5.926;2024-02-14T08:38:53;31.05;;;20.77;;
47335;SDS011;33068;51.990;5.926;2024-02-14T08:41:20;36.25;;;22.60;;
47335;SDS011;33068;51.990;5.926;2024-02-14T08:43:48;36.33;;;22.42;;
47335;SDS011;33068;51.990;5.926;2024-02-14T08:46:18;33.40;;;21.50;;
47335;SDS011;33068;51.990;5.926;2024-02-14T08:48:45;32.50;;;21.25;;
47335;SDS011;33068;51.990;5.926;2024-02-14T08:51:12;35.83;;;21.42;;
47335;SDS011;33068;51.990;5.926;2024-02-14T08:53:39;41.22;;;22.92;;
47335;SDS011;33068;51.990;5.926;2024-02-14T08:56:07;38.55;;;21.63;;
47335;SDS011;33068;51.990;5.926;2024-02-14T08:58:36;33.10;;;20.10;;
47335;SDS011;33068;51.990;5.926;2024-02-14T09:01:03;39.17;;;22.25;;
47335;SDS011;33068;51.990;5.926;2024-02-14T09:03:32;32.95;;;19.95;;
47335;SDS011;33068;51.990;5.926;2024-02-14T09:05:59;36.38;;;20.92;;
47335;SDS011;33068;51.990;5.926;2024-02-14T09:08:28;33.00;;;20.05;;
47335;SDS011;33068;51.990;5.926;2024-02-14T09:10:56;34.63;;;19.50;;
47335;SDS011;33068;51.990;5.926;2024-02-14T09:13:24;35.30;;;21.13;;
47335;SDS011;33068;51.990;5.926;2024-02-14T09:15:52;32.08;;;20.15;;
47335;SDS011;33068;51.990;5.926;2024-02-14T09:18:20;30.25;;;17.92;;
47335;SDS011;33068;51.990;5.926;2024-02-14T09:20:48;32.78;;;20.73;;
47335;SDS011;33068;51.990;5.926;2024-02-14T09:23:16;33.00;;;18.95;;
47335;SDS011;33068;51.990;5.926;2024-02-14T09:25:45;30.38;;;19.15;;
47335;SDS011;33068;51.990;5.926;2024-02-14T09:28:13;30.45;;;19.02;;
47335;SDS011;33068;51.990;5.926;2024-02-14T09:30:40;27.80;;;18.13;;
47335;SDS011;33068;51.990;5.926;2024-02-14T09:33:07;27.85;;;18.17;;
47335;SDS011;33068;51.990;5.926;2024-02-14T09:35:35;31.00;;;19.50;;
47335;SDS011;33068;51.990;5.926;2024-02-14T09:38:05;28.85;;;18.38;;
47335;SDS011;33068;51.990;5.926;2024-02-14T09:40:32;24.42;;;16.58;;
47335;SDS011;33068;51.990;5.926;2024-02-14T09:43:00;26.67;;;17.38;;
47335;SDS011;33068;51.990;5.926;2024-02-14T09:45:31;26.73;;;16.95;;
47335;SDS011;33068;51.990;5.926;2024-02-14T09:51:47;25.57;;;18.13;;
47335;SDS011;33068;51.990;5.926;2024-02-14T09:54:16;28.98;;;18.25;;
47335;SDS011;33068;51.990;5.926;2024-02-14T09:56:45;29.00;;;17.88;;
47335;SDS011;33068;51.990;5.926;2024-02-14T09:59:18;25.83;;;19.05;;
47335;SDS011;33068;51.990;5.926;2024-02-14T10:01:46;28.35;;;19.00;;
47335;SDS011;33068;51.990;5.926;2024-02-14T10:04:16;34.30;;;19.80;;
47335;SDS011;33068;51.990;5.926;2024-02-14T10:06:44;35.05;;;19.52;;
47335;SDS011;33068;51.990;5.926;2024-02-14T10:09:11;32.85;;;19.33;;
47335;SDS011;33068;51.990;5.926;2024-02-14T10:11:39;35.13;;;20.73;;
47335;SDS011;33068;51.990;5.926;2024-02-14T10:14:06;32.67;;;19.20;;
47335;SDS011;33068;51.990;5.926;2024-02-14T10:16:37;37.15;;;20.40;;
47335;SDS011;33068;51.990;5.926;2024-02-14T10:19:04;37.38;;;21.33;;
47335;SDS011;33068;51.990;5.926;2024-02-14T10:21:33;32.45;;;21.02;;
47335;SDS011;33068;51.990;5.926;2024-02-14T10:24:00;33.63;;;20.20;;
47335;SDS011;33068;51.990;5.926;2024-02-14T10:26:27;33.85;;;19.75;;
47335;SDS011;33068;51.990;5.926;2024-02-14T10:28:57;30.77;;;19.83;;
47335;SDS011;33068;51.990;5.926;2024-02-14T10:31:24;32.50;;;18.92;;
47335;SDS011;33068;51.990;5.926;2024-02-14T10:33:52;32.17;;;19.90;;
47335;SDS011;33068;51.990;5.926;2024-02-14T10:36:21;30.23;;;19.10;;
47335;SDS011;33068;51.990;5.926;2024-02-14T10:38:49;28.40;;;19.05;;
47335;SDS011;33068;51.990;5.926;2024-02-14T10:41:17;34.65;;;19.92;;
47335;SDS011;33068;51.990;5.926;2024-02-14T10:43:44;29.08;;;18.10;;
47335;SDS011;33068;51.990;5.926;2024-02-14T10:46:15;34.22;;;18.90;;
47335;SDS011;33068;51.990;5.926;2024-02-14T10:48:47;30.85;;;18.10;;
47335;SDS011;33068;51.990;5.926;2024-02-14T10:51:15;26.48;;;16.75;;
47335;SDS011;33068;51.990;5.926;2024-02-14T10:53:43;30.58;;;19.05;;
47335;SDS011;33068;51.990;5.926;2024-02-14T10:56:13;30.13;;;18.73;;
47335;SDS011;33068;51.990;5.926;2024-02-14T10:58:44;27.88;;;17.30;;
47335;SDS011;33068;51.990;5.926;2024-02-14T11:01:14;28.73;;;16.40;;
47335;SDS011;33068;51.990;5.926;2024-02-14T11:03:43;30.77;;;17.38;;
47335;SDS011;33068;51.990;5.926;2024-02-14T11:06:15;27.52;;;18.05;;
47335;SDS011;33068;51.990;5.926;2024-02-14T11:11:31;29.83;;;18.30;;
47335;SDS011;33068;51.990;5.926;2024-02-14T11:13:59;26.20;;;17.48;;
47335;SDS011;33068;51.990;5.926;2024-02-14T11:16:28;26.60;;;16.75;;
47335;SDS011;33068;51.990;5.926;2024-02-14T11:19:07;27.00;;;17.48;;
47335;SDS011;33068;51.990;5.926;2024-02-14T11:21:36;30.05;;;17.88;;
47335;SDS011;33068;51.990;5.926;2024-02-14T11:24:04;28.45;;;15.98;;
47335;SDS011;33068;51.990;5.926;2024-02-14T11:26:39;24.70;;;16.30;;
47335;SDS011;33068;51.990;5.926;2024-02-14T11:29:13;28.00;;;15.93;;
47335;SDS011;33068;51.990;5.926;2024-02-14T11:31:44;22.92;;;16.23;;
47335;SDS011;33068;51.990;5.926;2024-02-14T11:34:13;23.00;;;16.35;;
47335;SDS011;33068;51.990;5.926;2024-02-14T11:36:41;22.23;;;15.63;;
47335;SDS011;33068;51.990;5.926;2024-02-14T11:39:09;23.23;;;14.02;;
47335;SDS011;33068;51.990;5.926;2024-02-14T11:41:37;21.73;;;14.90;;
47335;SDS011;33068;51.990;5.926;2024-02-14T11:44:05;21.90;;;15.30;;
47335;SDS011;33068;51.990;5.926;2024-02-14T11:46:32;25.65;;;15.48;;
47335;SDS011;33068;51.990;5.926;2024-02-14T11:49:03;23.60;;;15.10;;
47335;SDS011;33068;51.990;5.926;2024-02-14T11:51:32;26.98;;;16.05;;
47335;SDS011;33068;51.990;5.926;2024-02-14T11:54:01;25.58;;;15.95;;
47335;SDS011;33068;51.990;5.926;2024-02-14T11:56:30;22.05;;;14.55;;
47335;SDS011;33068;51.990;5.926;2024-02-14T11:58:59;21.25;;;14.90;;
47335;SDS011;33068;51.990;5.926;2024-02-14T12:01:28;27.30;;;14.63;;
47335;SDS011;33068;51.990;5.926;2024-02-14T12:03:57;28.65;;;15.70;;
47335;SDS011;33068;51.990;5.926;2024-02-14T12:06:27;27.08;;;15.90;;
47335;SDS011;33068;51.990;5.926;2024-02-14T12:08:56;20.55;;;14.18;;
47335;SDS011;33068;51.990;5.926;2024-02-14T12:11:26;21.63;;;14.88;;
47335;SDS011;33068;51.990;5.926;2024-02-14T12:13:54;17.77;;;12.90;;
47335;SDS011;33068;51.990;5.926;2024-02-14T12:16:22;22.35;;;13.05;;
47335;SDS011;33068;51.990;5.926;2024-02-14T12:18:49;17.60;;;11.65;;
47335;SDS011;33068;51.990;5.926;2024-02-14T12:21:28;18.13;;;11.35;;
47335;SDS011;33068;51.990;5.926;2024-02-14T12:24:00;22.40;;;12.32;;
47335;SDS011;33068;51.990;5.926;2024-02-14T12:26:27;24.20;;;12.82;;
47335;SDS011;33068;51.990;5.926;2024-02-14T12:28:55;21.77;;;12.30;;
47335;SDS011;33068;51.990;5.926;2024-02-14T12:31:22;16.90;;;10.65;;
47335;SDS011;33068;51.990;5.926;2024-02-14T12:33:49;15.40;;;11.05;;
47335;SDS011;33068;51.990;5.926;2024-02-14T12:36:20;17.52;;;12.23;;
47335;SDS011;33068;51.990;5.926;2024-02-14T12:38:49;15.50;;;11.20;;
47335;SDS011;33068;51.990;5.926;2024-02-14T12:41:18;15.27;;;11.30;;
47335;SDS011;33068;51.990;5.926;2024-02-14T12:43:45;15.65;;;11.13;;
47335;SDS011;33068;51.990;5.926;2024-02-14T12:46:13;12.93;;;9.40;;
47335;SDS011;33068;51.990;5.926;2024-02-14T12:48:40;17.38;;;9.95;;
47335;SDS011;33068;51.990;5.926;2024-02-14T12:51:08;14.88;;;10.43;;
47335;SDS011;33068;51.990;5.926;2024-02-14T12:53:35;13.85;;;10.77;;
47335;SDS011;33068;51.990;5.926;2024-02-14T12:56:04;11.45;;;8.55;;
47335;SDS011;33068;51.990;5.926;2024-02-14T12:58:31;18.52;;;9.63;;
47335;SDS011;33068;51.990;5.926;2024-02-14T13:00:59;9.68;;;8.75;;
47335;SDS011;33068;51.990;5.926;2024-02-14T13:03:26;17.35;;;11.15;;
47335;SDS011;33068;51.990;5.926;2024-02-14T13:05:54;12.73;;;9.52;;
47335;SDS011;33068;51.990;5.926;2024-02-14T13:08:21;10.88;;;9.23;;
47335;SDS011;33068;51.990;5.926;2024-02-14T13:10:49;10.93;;;9.43;;
47335;SDS011;33068;51.990;5.926;2024-02-14T13:13:21;11.13;;;8.45;;
47335;SDS011;33068;51.990;5.926;2024-02-14T13:15:48;9.55;;;7.65;;
47335;SDS011;33068;51.990;5.926;2024-02-14T13:18:15;9.32;;;7.53;;
47335;SDS011;33068;51.990;5.926;2024-02-14T13:20:43;10.15;;;7.75;;
47335;SDS011;33068;51.990;5.926;2024-02-14T13:23:10;8.98;;;6.40;;
47335;SDS011;33068;51.990;5.926;2024-02-14T13:25:39;6.80;;;5.57;;
47335;SDS011;33068;51.990;5.926;2024-02-14T13:28:06;9.73;;;6.13;;
47335;SDS011;33068;51.990;5.926;2024-02-14T13:30:35;8.50;;;5.85;;
47335;SDS011;33068;51.990;5.926;2024-02-14T13:33:03;10.38;;;8.63;;
47335;SDS011;33068;51.990;5.926;2024-02-14T13:35:30;12.82;;;7.85;;
47335;SDS011;33068;51.990;5.926;2024-02-14T13:38:03;6.90;;;5.43;;
47335;SDS011;33068;51.990;5.926;2024-02-14T13:40:30;7.53;;;5.95;;
47335;SDS011;33068;51.990;5.926;2024-02-14T13:42:57;7.97;;;6.43;;
47335;SDS011;33068;51.990;5.926;2024-02-14T13:45:25;8.48;;;6.38;;
47335;SDS011;33068;51.990;5.926;2024-02-14T13:48:01;9.55;;;7.75;;
47335;SDS011;33068;51.990;5.926;2024-02-14T13:50:34;8.77;;;7.47;;
47335;SDS011;33068;51.990;5.926;2024-02-14T13:53:02;9.82;;;7.85;;
47335;SDS011;33068;51.990;5.926;2024-02-14T13:55:37;9.63;;;8.45;;
47335;SDS011;33068;51.990;5.926;2024-02-14T13:58:10;11.20;;;8.88;;
47335;SDS011;33068;51.990;5.926;2024-02-14T14:00:42;13.95;;;10.27;;
47335;SDS011;33068;51.990;5.926;2024-02-14T14:03:11;13.13;;;10.30;;
47335;SDS011;33068;51.990;5.926;2024-02-14T14:05:38;12.98;;;9.05;;
47335;SDS011;33068;51.990;5.926;2024-02-14T14:08:05;15.82;;;10.75;;
47335;SDS011;33068;51.990;5.926;2024-02-14T15:46:17;20.15;;;12.63;;
47335;SDS011;33068;51.990;5.926;2024-02-14T15:48:44;19.05;;;12.40;;
47335;SDS011;33068;51.990;5.926;2024-02-14T15:59:40;17.17;;;13.13;;
47335;SDS011;33068;51.990;5.926;2024-02-14T16:02:09;15.35;;;11.68;;
47335;SDS011;33068;51.990;5.926;2024-02-14T16:04:36;17.48;;;13.38;;
47335;SDS011;33068;51.990;5.926;2024-02-14T16:07:05;16.45;;;13.48;;
47335;SDS011;33068;51.990;5.926;2024-02-14T16:09:32;21.67;;;15.07;;
47335;SDS011;33068;51.990;5.926;2024-02-14T16:11:59;26.95;;;15.30;;
47335;SDS011;33068;51.990;5.926;2024-02-14T16:14:29;21.25;;;14.57;;
47335;SDS011;33068;51.990;5.926;2024-02-14T16:16:58;22.42;;;16.80;;
47335;SDS011;33068;51.990;5.926;2024-02-14T16:19:27;22.90;;;16.90;;
47335;SDS011;33068;51.990;5.926;2024-02-14T16:21:54;23.38;;;16.30;;
47335;SDS011;33068;51.990;5.926;2024-02-14T16:24:27;16.80;;;14.77;;